Time;durP1;ratioP1;P1;durP2;ratioP2;P2;SDS_P1;SDS_P2;PMS_P1;PMS_P2;Temp;Humidity;BMP_temperature;BMP_pressure;BME280_temperature;BME280_humidity;BME280_pressure;Samples;Min_cycle;Max_cycle;Signal;HPM_P1;HPM_P2
2022/05/09 00:01:17;;;;;;;;;20.75;20.00;;;;;;;;5043465;28;51134;-52
2022/05/09 00:03:44;;;;;;;;;23.00;23.00;;;;;;;;5064036;28;52628;-54
2022/05/09 00:06:09;;;;;;;;;20.00;19.50;;;;;;;;5056127;28;51119;-58
2022/05/09 00:08:34;;;;;;;;;20.75;20.00;;;;;;;;5052706;28;50949;-52
2022/05/09 00:11:00;;;;;;;;;20.25;19.25;;;;;;;;5052711;28;50994;-51
2022/05/09 00:13:25;;;;;;;;;20.25;19.75;;;;;;;;5053206;28;51139;-53
2022/05/09 00:15:50;;;;;;;;;22.75;22.50;;;;;;;;5038880;28;52674;-53
2022/05/09 00:18:17;;;;;;;;;16.50;16.50;;;;;;;;5072386;28;51867;-52
2022/05/09 00:20:42;;;;;;;;;20.75;20.50;;;;;;;;5057490;28;50983;-50
2022/05/09 00:23:07;;;;;;;;;19.75;19.00;;;;;;;;5055942;28;51042;-52
2022/05/09 00:25:32;;;;;;;;;18.50;18.50;;;;;;;;5070388;28;50874;-51
2022/05/09 00:27:58;;;;;;;;;20.50;19.50;;;;;;;;5061353;28;51173;-52
2022/05/09 00:30:23;;;;;;;;;16.25;16.25;;;;;;;;5052130;28;50867;-52
2022/05/09 00:32:48;;;;;;;;;20.00;20.00;;;;;;;;5051933;28;51207;-51
2022/05/09 00:35:14;;;;;;;;;18.75;18.50;;;;;;;;5035765;28;51332;-54
2022/05/09 00:37:40;;;;;;;;;17.50;16.75;;;;;;;;5065586;28;52224;-53
2022/05/09 00:40:08;;;;;;;;;19.50;17.75;;;;;;;;5052198;28;51147;-52
2022/05/09 00:42:34;;;;;;;;;17.50;16.50;;;;;;;;5048234;28;51000;-52
2022/05/09 00:44:59;;;;;;;;;16.50;16.50;;;;;;;;5052194;28;51170;-51
2022/05/09 00:47:25;;;;;;;;;13.25;12.50;;;;;;;;5050741;28;51120;-51
2022/05/09 00:49:52;;;;;;;;;15.50;15.00;;;;;;;;5035747;28;51068;-54
2022/05/09 00:52:29;;;;;;;;;17.00;15.50;;;;;;;;5057039;28;50911;-53
2022/05/09 00:55:15;;;;;;;;;16.50;16.00;;;;;;;;5051893;28;51002;-51
2022/05/09 00:57:50;;;;;;;;;16.00;14.50;;;;;;;;5058032;28;51819;-55
2022/05/09 01:00:16;;;;;;;;;14.75;13.75;;;;;;;;5059184;28;50988;-51
2022/05/09 01:02:44;;;;;;;;;14.00;14.00;;;;;;;;5059608;28;50916;-53
2022/05/09 01:05:12;;;;;;;;;14.00;14.00;;;;;;;;5056127;28;51142;-53
2022/05/09 01:07:38;;;;;;;;;16.00;15.25;;;;;;;;5057618;28;51045;-52
2022/05/09 01:10:03;;;;;;;;;10.75;10.75;;;;;;;;5066645;28;51139;-50
2022/05/09 01:12:30;;;;;;;;;14.75;14.75;;;;;;;;5063831;28;51271;-52
2022/05/09 01:15:00;;;;;;;;;14.00;13.00;;;;;;;;5055217;28;51057;-56
2022/05/09 01:17:26;;;;;;;;;14.75;13.50;;;;;;;;5054733;28;51902;-54
2022/05/09 01:19:53;;;;;;;;;12.25;12.25;;;;;;;;5058592;28;51049;-53
2022/05/09 01:22:25;;;;;;;;;11.50;11.25;;;;;;;;5055285;28;51019;-51
2022/05/09 01:24:52;;;;;;;;;14.25;13.25;;;;;;;;5059355;28;50878;-51
2022/05/09 01:27:17;;;;;;;;;10.00;10.00;;;;;;;;5061286;28;51205;-53
2022/05/09 01:29:47;;;;;;;;;12.67;11.67;;;;;;;;5055274;28;51039;-54
2022/05/09 01:32:15;;;;;;;;;13.50;12.50;;;;;;;;5055723;28;51073;-54
2022/05/09 01:34:45;;;;;;;;;10.00;9.33;;;;;;;;5058396;28;51077;-54
2022/05/09 01:37:11;;;;;;;;;11.67;10.00;;;;;;;;5056517;28;51760;-54
2022/05/09 01:39:36;;;;;;;;;12.50;12.00;;;;;;;;5059453;28;51131;-51
2022/05/09 01:42:08;;;;;;;;;13.33;13.00;;;;;;;;5054773;28;51232;-51
2022/05/09 01:44:34;;;;;;;;;11.00;11.00;;;;;;;;5057196;28;51263;-51
2022/05/09 01:49:45;;;;;;;;;12.33;10.33;;;;;;;;5063989;28;51113;-52
2022/05/09 01:52:14;;;;;;;;;10.00;10.00;;;;;;;;5062362;28;51128;-56
2022/05/09 01:54:41;;;;;;;;;11.00;10.25;;;;;;;;5055312;28;51257;-50
2022/05/09 01:57:06;;;;;;;;;10.00;10.00;;;;;;;;5065437;28;52039;-50
2022/05/09 01:59:31;;;;;;;;;9.00;8.33;;;;;;;;5073578;28;50895;-50
2022/05/09 02:01:59;;;;;;;;;11.00;11.00;;;;;;;;5054418;28;51093;-53
2022/05/09 02:04:25;;;;;;;;;9.50;9.50;;;;;;;;5065840;28;51204;-54
2022/05/09 02:06:51;;;;;;;;;10.00;8.00;;;;;;;;5054129;28;51966;-51
2022/05/09 02:09:16;;;;;;;;;9.00;9.00;;;;;;;;5055076;28;51118;-53
2022/05/09 02:11:42;;;;;;;;;11.00;11.00;;;;;;;;5054067;28;51048;-53
2022/05/09 02:14:08;;;;;;;;;11.00;10.33;;;;;;;;5054431;28;51317;-51
2022/05/09 02:16:34;;;;;;;;;8.00;8.00;;;;;;;;5053170;28;51019;-50
2022/05/09 02:18:59;;;;;;;;;9.00;9.00;;;;;;;;5066711;28;50946;-55
2022/05/09 02:21:25;;;;;;;;;12.00;12.00;;;;;;;;5059578;28;51098;-54
2022/05/09 02:23:50;;;;;;;;;12.50;11.75;;;;;;;;5055614;28;51333;-53
2022/05/09 02:26:15;;;;;;;;;11.50;8.25;;;;;;;;5053262;28;51087;-51
2022/05/09 02:28:41;;;;;;;;;9.25;8.25;;;;;;;;5050016;28;51007;-54
2022/05/09 02:31:06;;;;;;;;;10.00;9.67;;;;;;;;5061175;28;51049;-54
2022/05/09 02:33:32;;;;;;;;;9.00;9.00;;;;;;;;5060268;28;51280;-52
2022/05/09 02:35:57;;;;;;;;;9.33;9.33;;;;;;;;5037391;28;53551;-53
2022/05/09 02:38:28;;;;;;;;;10.75;10.25;;;;;;;;5059875;28;50930;-51
2022/05/09 02:40:53;;;;;;;;;10.25;9.00;;;;;;;;5053422;28;51022;-53
2022/05/09 02:43:19;;;;;;;;;8.00;8.00;;;;;;;;5053767;28;51426;-51
2022/05/09 02:45:44;;;;;;;;;9.50;9.50;;;;;;;;5053535;28;51636;-51
2022/05/09 02:48:10;;;;;;;;;9.00;8.25;;;;;;;;5068970;28;51143;-51
2022/05/09 02:50:35;;;;;;;;;7.25;7.25;;;;;;;;5061703;28;50999;-51
2022/05/09 02:53:01;;;;;;;;;9.00;9.00;;;;;;;;5055668;28;50830;-51
2022/05/09 02:55:26;;;;;;;;;10.25;8.75;;;;;;;;5053680;28;51038;-53
2022/05/09 02:57:52;;;;;;;;;9.50;9.50;;;;;;;;5054062;28;51093;-54
2022/05/09 03:00:22;;;;;;;;;9.25;9.25;;;;;;;;5053395;28;50925;-54
2022/05/09 03:05:32;;;;;;;;;8.50;8.00;;;;;;;;5064155;28;51067;-56
2022/05/09 03:07:58;;;;;;;;;13.50;12.25;;;;;;;;5054509;28;50937;-54
2022/05/09 03:10:23;;;;;;;;;7.50;7.50;;;;;;;;5068175;28;51093;-52
2022/05/09 03:12:49;;;;;;;;;10.75;9.75;;;;;;;;5074088;28;51386;-51
2022/05/09 03:15:14;;;;;;;;;9.50;8.50;;;;;;;;5063996;28;51952;-53
2022/05/09 03:17:39;;;;;;;;;10.75;10.50;;;;;;;;5053093;28;51154;-52
2022/05/09 03:20:04;;;;;;;;;12.50;11.25;;;;;;;;5054392;28;50949;-53
2022/05/09 03:22:30;;;;;;;;;8.00;7.50;;;;;;;;5064217;28;51412;-53
2022/05/09 03:24:55;;;;;;;;;12.00;10.25;;;;;;;;5065772;28;52303;-53
2022/05/09 03:27:20;;;;;;;;;10.00;8.25;;;;;;;;5056785;28;51385;-53
2022/05/09 03:29:45;;;;;;;;;9.00;8.00;;;;;;;;5059181;28;51220;-54
2022/05/09 03:32:11;;;;;;;;;15.25;11.75;;;;;;;;5047641;28;51183;-50
2022/05/09 03:34:36;;;;;;;;;11.00;10.00;;;;;;;;5058549;28;52655;-50
2022/05/09 03:37:01;;;;;;;;;12.75;11.00;;;;;;;;5061900;28;51031;-52
2022/05/09 03:39:26;;;;;;;;;11.50;11.50;;;;;;;;5036763;28;50945;-54
2022/05/09 03:41:51;;;;;;;;;10.00;10.00;;;;;;;;5073838;28;50889;-51
2022/05/09 03:44:17;;;;;;;;;9.50;9.00;;;;;;;;5054174;28;52328;-51
2022/05/09 03:46:42;;;;;;;;;14.75;11.00;;;;;;;;5052522;28;51128;-51
2022/05/09 03:49:08;;;;;;;;;9.00;9.00;;;;;;;;5058719;28;50822;-54
2022/05/09 03:51:33;;;;;;;;;11.25;10.00;;;;;;;;5034950;28;50926;-55
2022/05/09 03:53:58;;;;;;;;;13.00;11.00;;;;;;;;5053713;28;52511;-52
2022/05/09 03:56:23;;;;;;;;;11.00;10.50;;;;;;;;5066034;28;51167;-52
2022/05/09 03:58:49;;;;;;;;;11.25;11.25;;;;;;;;5059039;28;50998;-53
2022/05/09 04:01:14;;;;;;;;;12.75;12.00;;;;;;;;5060512;28;51024;-50
2022/05/09 04:03:39;;;;;;;;;12.00;11.75;;;;;;;;5056669;28;52134;-50
2022/05/09 04:06:05;;;;;;;;;12.50;11.75;;;;;;;;5052319;28;50913;-51
2022/05/09 04:08:30;;;;;;;;;11.00;11.00;;;;;;;;5051953;28;51389;-51
2022/05/09 04:10:55;;;;;;;;;28.50;27.75;;;;;;;;5053377;28;50979;-53
2022/05/09 04:13:21;;;;;;;;;15.25;15.25;;;;;;;;5054125;28;52122;-51
2022/05/09 04:18:34;;;;;;;;;10.00;10.00;;;;;;;;5052997;28;51001;-51
2022/05/09 04:20:59;;;;;;;;;16.50;14.25;;;;;;;;5062763;28;51125;-53
2022/05/09 04:23:25;;;;;;;;;14.50;12.00;;;;;;;;5071308;28;51889;-54
2022/05/09 04:25:50;;;;;;;;;17.00;14.25;;;;;;;;5063487;28;51037;-52
2022/05/09 04:28:16;;;;;;;;;14.50;12.75;;;;;;;;5054909;28;51067;-52
2022/05/09 04:30:42;;;;;;;;;12.25;11.00;;;;;;;;5062202;28;51325;-49
2022/05/09 04:33:07;;;;;;;;;15.00;12.00;;;;;;;;5054069;28;51594;-50
2022/05/09 04:35:33;;;;;;;;;16.50;14.25;;;;;;;;5057983;28;51083;-53
2022/05/09 04:37:58;;;;;;;;;11.75;11.75;;;;;;;;5056736;28;51371;-51
2022/05/09 04:40:31;;;;;;;;;13.50;13.50;;;;;;;;5058087;28;51220;-50
2022/05/09 04:42:57;;;;;;;;;15.25;13.75;;;;;;;;5057639;28;51131;-52
2022/05/09 04:45:23;;;;;;;;;17.00;14.75;;;;;;;;5055290;28;50959;-53
2022/05/09 04:47:51;;;;;;;;;16.50;14.75;;;;;;;;5053980;28;50988;-52
2022/05/09 04:50:18;;;;;;;;;15.00;14.00;;;;;;;;5067799;28;51212;-51
2022/05/09 04:52:43;;;;;;;;;14.75;12.50;;;;;;;;5065950;28;51798;-52
2022/05/09 04:55:09;;;;;;;;;15.00;14.25;;;;;;;;5058445;28;51039;-51
2022/05/09 04:57:34;;;;;;;;;14.00;13.25;;;;;;;;5057752;28;51092;-53
2022/05/09 05:00:01;;;;;;;;;16.00;16.00;;;;;;;;5050883;28;51146;-54
2022/05/09 05:02:26;;;;;;;;;15.75;15.00;;;;;;;;5052552;28;51096;-53
2022/05/09 05:04:51;;;;;;;;;19.75;17.25;;;;;;;;5057143;28;51218;-53
2022/05/09 05:07:17;;;;;;;;;12.75;11.75;;;;;;;;5059749;28;50800;-50
2022/05/09 05:09:42;;;;;;;;;12.75;12.25;;;;;;;;5057233;28;51226;-51
2022/05/09 05:12:07;;;;;;;;;16.50;14.50;;;;;;;;5055468;28;52001;-51
2022/05/09 05:14:33;;;;;;;;;16.25;14.00;;;;;;;;5065480;28;51083;-53
2022/05/09 05:17:01;;;;;;;;;18.25;17.50;;;;;;;;5040923;28;51150;-52
2022/05/09 05:19:27;;;;;;;;;16.50;16.50;;;;;;;;5059522;28;50889;-53
2022/05/09 05:21:52;;;;;;;;;19.00;15.75;;;;;;;;5063711;28;51707;-54
2022/05/09 05:24:17;;;;;;;;;12.75;12.75;;;;;;;;5056842;28;51192;-51
2022/05/09 05:26:42;;;;;;;;;17.25;16.25;;;;;;;;5056443;28;51122;-52
2022/05/09 05:29:07;;;;;;;;;14.50;13.25;;;;;;;;5063028;28;51111;-52
2022/05/09 05:31:33;;;;;;;;;13.25;13.00;;;;;;;;5058435;28;51186;-50
2022/05/09 05:33:58;;;;;;;;;17.00;16.00;;;;;;;;5051333;28;51045;-53
2022/05/09 05:36:23;;;;;;;;;14.75;14.50;;;;;;;;5066951;28;51016;-51
2022/05/09 05:38:51;;;;;;;;;13.00;12.00;;;;;;;;5059315;28;51134;-51
2022/05/09 05:41:20;;;;;;;;;15.00;14.25;;;;;;;;5064468;28;51156;-53
2022/05/09 05:43:45;;;;;;;;;16.33;14.33;;;;;;;;5049460;28;51549;-51
2022/05/09 05:46:11;;;;;;;;;10.00;9.50;;;;;;;;5058944;28;51320;-52
2022/05/09 05:48:36;;;;;;;;;11.33;11.33;;;;;;;;5067514;28;51239;-51
2022/05/09 05:51:02;;;;;;;;;14.00;12.33;;;;;;;;5059319;28;51834;-50
2022/05/09 05:53:27;;;;;;;;;14.33;13.67;;;;;;;;5061520;28;52431;-51
2022/05/09 05:55:53;;;;;;;;;21.00;16.33;;;;;;;;5072277;28;50953;-52
2022/05/09 05:58:18;;;;;;;;;16.67;15.67;;;;;;;;5054547;28;50968;-53
2022/05/09 06:00:43;;;;;;;;;17.33;16.00;;;;;;;;5058662;28;51957;-52
2022/05/09 06:03:08;;;;;;;;;19.50;19.25;;;;;;;;5065557;28;51057;-53
2022/05/09 06:05:34;;;;;;;;;19.75;18.75;;;;;;;;5063433;28;51097;-54
2022/05/09 06:07:59;;;;;;;;;15.33;14.67;;;;;;;;5060279;28;51522;-53
2022/05/09 06:10:26;;;;;;;;;13.33;11.33;;;;;;;;5057239;28;51108;-50
2022/05/09 06:12:53;;;;;;;;;16.00;15.67;;;;;;;;5038011;28;51367;-50
2022/05/09 06:15:33;;;;;;;;;15.67;15.67;;;;;;;;5053292;28;51026;-51
2022/05/09 06:18:08;;;;;;;;;16.00;15.33;;;;;;;;5035739;28;51140;-51
2022/05/09 06:20:34;;;;;;;;;15.00;13.67;;;;;;;;5068928;28;51286;-52
2022/05/09 06:23:00;;;;;;;;;14.00;12.00;;;;;;;;5053821;28;51209;-53
2022/05/09 06:25:27;;;;;;;;;16.33;15.33;;;;;;;;5060587;28;51206;-51
2022/05/09 06:27:52;;;;;;;;;16.67;16.33;;;;;;;;5067964;28;51183;-55
2022/05/09 06:30:21;;;;;;;;;16.00;15.00;;;;;;;;5064460;28;52060;-56
2022/05/09 06:32:47;;;;;;;;;15.67;14.00;;;;;;;;5055733;28;51245;-53
2022/05/09 06:35:14;;;;;;;;;16.67;15.67;;;;;;;;5056667;28;52333;-54
2022/05/09 06:37:40;;;;;;;;;15.00;15.00;;;;;;;;5069881;28;51381;-51
2022/05/09 06:40:06;;;;;;;;;19.00;17.00;;;;;;;;5069099;28;52817;-52
2022/05/09 06:42:32;;;;;;;;;14.67;14.00;;;;;;;;5069224;28;51071;-55
2022/05/09 06:44:57;;;;;;;;;15.67;15.00;;;;;;;;5055787;28;50808;-53
2022/05/09 06:47:22;;;;;;;;;16.33;16.33;;;;;;;;5065406;28;51190;-54
2022/05/09 06:49:48;;;;;;;;;18.33;16.33;;;;;;;;5064239;28;51891;-53
2022/05/09 06:52:13;;;;;;;;;15.67;15.00;;;;;;;;5035042;28;50942;-51
2022/05/09 06:54:38;;;;;;;;;19.33;18.33;;;;;;;;5062428;28;51105;-53
2022/05/09 06:57:05;;;;;;;;;18.33;17.67;;;;;;;;5051645;28;51312;-53
2022/05/09 06:59:31;;;;;;;;;15.33;14.00;;;;;;;;5060259;28;51709;-53
2022/05/09 07:01:56;;;;;;;;;17.33;16.33;;;;;;;;5053903;28;51097;-51
2022/05/09 07:04:21;;;;;;;;;14.00;14.00;;;;;;;;5052249;28;51337;-55
2022/05/09 07:06:47;;;;;;;;;18.67;16.00;;;;;;;;5053095;28;51413;-55
2022/05/09 07:09:15;;;;;;;;;10.67;10.33;;;;;;;;5049971;28;53472;-54
2022/05/09 07:11:40;;;;;;;;;20.00;18.67;;;;;;;;5053194;28;51000;-52
2022/05/09 07:14:05;;;;;;;;;20.67;19.33;;;;;;;;5057874;28;50917;-52
2022/05/09 07:16:31;;;;;;;;;21.33;18.00;;;;;;;;5055564;28;51410;-52
2022/05/09 07:18:57;;;;;;;;;16.67;16.67;;;;;;;;5037452;28;53035;-51
2022/05/09 07:21:22;;;;;;;;;18.67;16.33;;;;;;;;5054892;28;51039;-53
2022/05/09 07:23:47;;;;;;;;;21.00;19.67;;;;;;;;5048732;28;51111;-55
2022/05/09 07:26:13;;;;;;;;;18.67;16.67;;;;;;;;5058624;28;50965;-52
2022/05/09 07:28:39;;;;;;;;;14.33;13.33;;;;;;;;5069062;28;51986;-53
2022/05/09 07:31:04;;;;;;;;;28.33;23.33;;;;;;;;5052125;28;50897;-52
2022/05/09 07:33:30;;;;;;;;;17.67;17.67;;;;;;;;5069655;28;50893;-54
2022/05/09 07:35:55;;;;;;;;;15.00;14.33;;;;;;;;5064937;28;51826;-54
2022/05/09 07:38:21;;;;;;;;;15.33;14.00;;;;;;;;5055083;28;51982;-54
2022/05/09 07:40:47;;;;;;;;;15.00;13.67;;;;;;;;5063650;28;51097;-52
2022/05/09 07:43:14;;;;;;;;;20.00;19.67;;;;;;;;5057535;28;51294;-51
2022/05/09 07:45:40;;;;;;;;;14.00;14.00;;;;;;;;5068399;28;51300;-51
2022/05/09 07:48:06;;;;;;;;;17.67;17.67;;;;;;;;5053517;28;52964;-54
2022/05/09 07:50:31;;;;;;;;;17.67;16.33;;;;;;;;5061178;28;51314;-53
2022/05/09 07:52:57;;;;;;;;;17.67;17.33;;;;;;;;5059504;28;51037;-54
2022/05/09 07:55:22;;;;;;;;;15.67;15.67;;;;;;;;5068939;28;51136;-54
2022/05/09 07:57:47;;;;;;;;;16.67;16.33;;;;;;;;5067894;28;51025;-50
2022/05/09 08:00:13;;;;;;;;;16.33;16.33;;;;;;;;5053161;28;51080;-52
2022/05/09 08:02:41;;;;;;;;;20.00;18.00;;;;;;;;5046995;28;51038;-53
2022/05/09 08:05:09;;;;;;;;;17.00;15.33;;;;;;;;5053604;28;51251;-54
2022/05/09 08:07:35;;;;;;;;;17.67;17.00;;;;;;;;5056891;28;51989;-54
2022/05/09 08:10:00;;;;;;;;;21.00;19.67;;;;;;;;5058394;28;51203;-54
2022/05/09 08:12:25;;;;;;;;;19.00;18.75;;;;;;;;5055408;28;50980;-55
2022/05/09 08:14:50;;;;;;;;;19.67;18.33;;;;;;;;5060580;28;51097;-51
2022/05/09 08:17:15;;;;;;;;;16.00;14.67;;;;;;;;5060873;28;51165;-51
2022/05/09 08:19:41;;;;;;;;;18.00;18.00;;;;;;;;5060785;28;51130;-52
2022/05/09 08:22:07;;;;;;;;;18.33;17.00;;;;;;;;5057530;28;50961;-53
2022/05/09 08:24:33;;;;;;;;;20.00;18.33;;;;;;;;5058404;28;50862;-53
2022/05/09 08:26:58;;;;;;;;;13.67;13.33;;;;;;;;5056654;28;51293;-51
2022/05/09 08:29:23;;;;;;;;;23.50;22.75;;;;;;;;5051718;28;51150;-53
2022/05/09 08:31:49;;;;;;;;;20.75;20.75;;;;;;;;5048319;28;51432;-53
2022/05/09 08:34:15;;;;;;;;;19.00;19.00;;;;;;;;5055577;28;51079;-54
2022/05/09 08:36:49;;;;;;;;;17.67;17.67;;;;;;;;5054374;28;51782;-54
2022/05/09 08:39:15;;;;;;;;;23.00;23.00;;;;;;;;5055333;28;50824;-54
2022/05/09 08:41:49;;;;;;;;;22.25;22.25;;;;;;;;5058621;28;51036;-54
2022/05/09 08:44:14;;;;;;;;;21.50;20.50;;;;;;;;5053849;28;50978;-55
2022/05/09 08:46:49;;;;;;;;;19.75;19.25;;;;;;;;5050990;28;51186;-52
2022/05/09 08:49:23;;;;;;;;;19.00;19.00;;;;;;;;5060496;28;51141;-54
2022/05/09 08:51:57;;;;;;;;;19.75;19.75;;;;;;;;5059216;28;50902;-55
2022/05/09 08:54:23;;;;;;;;;19.00;18.00;;;;;;;;5051054;28;51414;-54
2022/05/09 08:57:11;;;;;;;;;21.25;20.00;;;;;;;;5050858;28;51108;-53
2022/05/09 08:59:38;;;;;;;;;18.25;18.00;;;;;;;;5052931;28;51251;-52
2022/05/09 09:02:14;;;;;;;;;23.50;23.00;;;;;;;;5057584;28;50970;-53
2022/05/09 09:04:39;;;;;;;;;25.25;23.50;;;;;;;;5032918;28;50953;-55
2022/05/09 09:07:10;;;;;;;;;19.50;18.50;;;;;;;;5050734;28;52102;-56
2022/05/09 09:09:57;;;;;;;;;23.25;22.50;;;;;;;;5053687;28;51240;-53
2022/05/09 09:12:31;;;;;;;;;23.75;22.75;;;;;;;;5051041;28;51013;-54
2022/05/09 09:15:12;;;;;;;;;21.00;21.00;;;;;;;;5057175;28;51183;-52
2022/05/09 09:17:43;;;;;;;;;19.00;17.25;;;;;;;;5051894;28;51095;-55
2022/05/09 09:20:08;;;;;;;;;18.50;18.25;;;;;;;;5054204;28;51112;-52
2022/05/09 09:22:51;;;;;;;;;17.50;16.75;;;;;;;;5067059;28;51145;-55
2022/05/09 09:25:30;;;;;;;;;20.75;20.75;;;;;;;;5056541;28;51133;-55
2022/05/09 09:28:16;;;;;;;;;25.75;25.25;;;;;;;;5049701;28;51372;-52
2022/05/09 09:30:42;;;;;;;;;21.00;19.50;;;;;;;;5064597;28;51055;-53
2022/05/09 09:33:09;;;;;;;;;20.75;20.50;;;;;;;;5059887;28;51027;-54
2022/05/09 09:35:44;;;;;;;;;23.50;21.00;;;;;;;;5057894;28;51278;-54
2022/05/09 09:38:20;;;;;;;;;23.25;23.25;;;;;;;;5058188;28;51284;-53
2022/05/09 09:40:45;;;;;;;;;23.00;22.00;;;;;;;;5053592;28;50980;-54
2022/05/09 09:43:10;;;;;;;;;22.00;21.00;;;;;;;;5039031;28;51212;-56
2022/05/09 09:45:40;;;;;;;;;22.25;21.25;;;;;;;;5054154;28;51114;-52
2022/05/09 09:48:18;;;;;;;;;22.25;21.50;;;;;;;;5035455;28;51156;-54
2022/05/09 09:50:54;;;;;;;;;24.25;23.75;;;;;;;;5053937;28;51120;-53
2022/05/09 09:53:29;;;;;;;;;26.00;25.75;;;;;;;;5057233;28;51071;-55
2022/05/09 09:56:02;;;;;;;;;24.75;23.25;;;;;;;;5066122;28;51190;-54
2022/05/09 09:58:28;;;;;;;;;25.25;23.25;;;;;;;;5054166;28;51293;-56
2022/05/09 10:01:14;;;;;;;;;26.50;26.25;;;;;;;;5059485;28;51155;-55
2022/05/09 10:03:44;;;;;;;;;28.75;26.00;;;;;;;;5065169;28;51046;-54
2022/05/09 10:06:14;;;;;;;;;24.25;23.25;;;;;;;;5067076;28;51101;-55
2022/05/09 10:08:39;;;;;;;;;25.25;25.25;;;;;;;;5053164;28;52751;-54
2022/05/09 10:11:05;;;;;;;;;24.75;23.50;;;;;;;;5053427;28;51168;-54
2022/05/09 10:13:41;;;;;;;;;26.50;25.00;;;;;;;;5053345;28;51195;-54
2022/05/09 10:16:11;;;;;;;;;29.25;26.75;;;;;;;;5059785;28;51076;-55
2022/05/09 10:18:36;;;;;;;;;25.00;24.50;;;;;;;;5052101;28;51130;-51
2022/05/09 10:21:13;;;;;;;;;23.00;23.00;;;;;;;;5053505;28;52193;-54
2022/05/09 10:26:31;;;;;;;;;25.75;25.25;;;;;;;;5053903;28;51061;-56
2022/05/09 10:28:59;;;;;;;;;23.00;23.00;;;;;;;;5053024;28;50937;-55
2022/05/09 10:31:27;;;;;;;;;24.75;23.75;;;;;;;;5051184;28;51057;-55
2022/05/09 10:33:59;;;;;;;;;22.00;20.75;;;;;;;;5049937;28;51189;-54
2022/05/09 10:36:27;;;;;;;;;24.75;23.75;;;;;;;;5057201;28;50982;-55
2022/05/09 10:38:56;;;;;;;;;26.75;26.75;;;;;;;;5062994;28;51958;-55
2022/05/09 10:41:27;;;;;;;;;24.75;22.75;;;;;;;;5037704;28;51152;-53
2022/05/09 10:43:56;;;;;;;;;23.00;23.00;;;;;;;;5052886;28;51306;-54
2022/05/09 10:46:25;;;;;;;;;25.00;24.50;;;;;;;;5053022;28;51284;-60
2022/05/09 10:49:19;;;;;;;;;21.50;20.75;;;;;;;;5057903;28;52458;-54
2022/05/09 10:51:44;;;;;;;;;22.50;22.50;;;;;;;;5030445;28;50983;-55
2022/05/09 10:54:12;;;;;;;;;23.75;22.25;;;;;;;;5057325;28;51100;-54
2022/05/09 10:56:37;;;;;;;;;23.25;23.25;;;;;;;;5053620;28;50989;-52
2022/05/09 10:59:04;;;;;;;;;21.50;21.00;;;;;;;;5071937;28;52418;-54
2022/05/09 11:01:29;;;;;;;;;24.75;24.75;;;;;;;;5054830;28;51067;-56
2022/05/09 11:03:55;;;;;;;;;28.25;28.25;;;;;;;;5053385;28;51232;-56
2022/05/09 11:06:20;;;;;;;;;26.25;25.25;;;;;;;;5035342;28;51291;-55
2022/05/09 11:09:04;;;;;;;;;22.50;21.75;;;;;;;;5037260;28;52976;-54
2022/05/09 11:11:48;;;;;;;;;24.00;23.75;;;;;;;;5059072;28;51077;-54
2022/05/09 11:14:21;;;;;;;;;21.50;21.25;;;;;;;;5053079;28;51200;-55
2022/05/09 11:16:56;;;;;;;;;20.75;20.00;;;;;;;;5052332;28;51336;-53
2022/05/09 11:19:21;;;;;;;;;20.25;20.25;;;;;;;;5052120;28;51780;-56
2022/05/09 11:22:03;;;;;;;;;21.25;21.25;;;;;;;;5055080;28;50945;-55
2022/05/09 11:24:56;;;;;;;;;21.75;21.75;;;;;;;;5060477;28;51009;-55
2022/05/09 11:27:21;;;;;;;;;20.75;20.50;;;;;;;;5062699;28;51037;-54
2022/05/09 11:30:07;;;;;;;;;24.75;23.75;;;;;;;;5050983;28;51131;-55
2022/05/09 11:32:38;;;;;;;;;24.50;24.50;;;;;;;;5051716;28;50971;-53
2022/05/09 11:35:16;;;;;;;;;21.00;21.00;;;;;;;;5055809;28;51111;-52
2022/05/09 11:38:00;;;;;;;;;24.50;23.50;;;;;;;;5054247;28;51229;-54
2022/05/09 11:40:28;;;;;;;;;20.75;20.25;;;;;;;;5055581;28;51857;-54
2022/05/09 11:45:49;;;;;;;;;22.00;20.50;;;;;;;;5071568;28;51082;-54
2022/05/09 11:48:15;;;;;;;;;21.25;19.25;;;;;;;;5063438;28;51155;-54
2022/05/09 11:50:59;;;;;;;;;18.75;18.75;;;;;;;;5056775;28;51556;-55
2022/05/09 11:53:26;;;;;;;;;19.75;19.00;;;;;;;;5067008;28;51006;-54
2022/05/09 11:55:52;;;;;;;;;25.25;22.25;;;;;;;;5064619;28;51214;-57
2022/05/09 11:58:17;;;;;;;;;28.00;26.00;;;;;;;;5055717;28;51100;-55
2022/05/09 12:00:47;;;;;;;;;27.75;25.25;;;;;;;;5051520;28;51709;-55
2022/05/09 12:03:13;;;;;;;;;27.75;26.75;;;;;;;;5069300;28;51259;-55
2022/05/09 12:05:38;;;;;;;;;22.50;21.75;;;;;;;;5065620;28;51090;-55
2022/05/09 12:08:04;;;;;;;;;24.25;22.25;;;;;;;;5057456;28;51833;-54
2022/05/09 12:10:35;;;;;;;;;23.25;23.25;;;;;;;;5058400;28;51939;-54
2022/05/09 12:13:04;;;;;;;;;26.00;24.50;;;;;;;;5053811;28;51104;-54
2022/05/09 12:15:29;;;;;;;;;24.75;24.25;;;;;;;;5057732;28;51238;-55
2022/05/09 12:17:54;;;;;;;;;20.00;20.00;;;;;;;;5066020;28;51230;-55
2022/05/09 12:20:26;;;;;;;;;26.50;26.00;;;;;;;;5050488;28;51652;-53
2022/05/09 12:22:52;;;;;;;;;25.25;24.50;;;;;;;;5051553;28;51074;-55
2022/05/09 12:25:32;;;;;;;;;24.00;23.50;;;;;;;;5056893;28;50993;-54
2022/05/09 12:28:04;;;;;;;;;24.00;23.00;;;;;;;;5055374;28;51362;-54
2022/05/09 12:30:42;;;;;;;;;25.00;24.50;;;;;;;;5057156;28;51098;-54
2022/05/09 12:33:20;;;;;;;;;22.50;22.50;;;;;;;;5063183;28;51153;-53
2022/05/09 12:35:47;;;;;;;;;23.50;22.50;;;;;;;;5054904;28;51284;-55
2022/05/09 12:38:13;;;;;;;;;26.50;25.00;;;;;;;;5052930;28;51068;-53
2022/05/09 12:40:38;;;;;;;;;26.00;26.00;;;;;;;;5051031;28;51106;-53
2022/05/09 12:43:04;;;;;;;;;23.25;22.25;;;;;;;;5056968;28;52054;-56
2022/05/09 12:45:30;;;;;;;;;25.25;24.75;;;;;;;;5051307;28;50980;-55
2022/05/09 12:47:56;;;;;;;;;19.50;19.50;;;;;;;;5052330;28;50835;-53
2022/05/09 12:50:30;;;;;;;;;26.75;25.00;;;;;;;;5063386;28;51780;-54
2022/05/09 12:52:58;;;;;;;;;21.25;21.00;;;;;;;;5051267;28;50935;-56
2022/05/09 12:58:26;;;;;;;;;22.50;22.00;;;;;;;;5055859;28;51051;-52
2022/05/09 13:00:55;;;;;;;;;24.50;23.50;;;;;;;;5046356;28;52490;-54
2022/05/09 13:03:20;;;;;;;;;23.25;22.50;;;;;;;;5060749;28;50902;-52
2022/05/09 13:05:45;;;;;;;;;19.00;17.50;;;;;;;;5062658;28;51220;-54
2022/05/09 13:08:13;;;;;;;;;15.00;15.00;;;;;;;;5059114;28;51182;-55
2022/05/09 13:10:47;;;;;;;;;21.75;21.00;;;;;;;;5061842;28;52667;-55
2022/05/09 13:13:21;;;;;;;;;20.75;20.50;;;;;;;;5058208;28;51067;-54
2022/05/09 13:15:47;;;;;;;;;17.75;17.75;;;;;;;;5058231;28;51143;-56
2022/05/09 13:18:17;;;;;;;;;18.50;17.75;;;;;;;;5059312;28;51322;-56
2022/05/09 13:20:50;;;;;;;;;17.25;17.25;;;;;;;;5040982;28;52093;-54
2022/05/09 13:23:15;;;;;;;;;15.00;15.00;;;;;;;;5064633;28;51036;-54
2022/05/09 13:25:46;;;;;;;;;24.00;22.00;;;;;;;;5065286;28;50851;-55
2022/05/09 13:28:16;;;;;;;;;21.00;19.75;;;;;;;;5054331;28;51029;-57
2022/05/09 13:30:45;;;;;;;;;25.00;24.50;;;;;;;;5065115;28;51795;-55
2022/05/09 13:33:15;;;;;;;;;23.75;21.75;;;;;;;;5056318;28;51229;-54
2022/05/09 13:35:40;;;;;;;;;17.50;16.50;;;;;;;;5061839;28;51214;-56
2022/05/09 13:38:23;;;;;;;;;17.33;17.33;;;;;;;;5056256;28;51102;-54
2022/05/09 13:40:50;;;;;;;;;21.00;19.00;;;;;;;;5066623;28;52245;-55
2022/05/09 13:43:20;;;;;;;;;19.00;19.00;;;;;;;;5054127;28;51042;-55
2022/05/09 13:45:46;;;;;;;;;20.00;19.75;;;;;;;;5059554;28;51128;-49
2022/05/09 15:28:56;;;;;;;;;14.75;14.00;;;;;-147.17;100.00;47644.09;5094839;27;50973;-57
2022/05/09 15:31:21;;;;;;;;;17.33;17.33;;;;;-147.17;100.00;47608.69;5068140;28;50858;-57
2022/05/09 15:33:47;;;;;;;;;15.33;15.33;;;;;-147.17;100.00;47555.56;5069175;28;50972;-56
2022/05/09 15:36:13;;;;;;;;;17.25;16.75;;;;;-147.17;100.00;47470.97;5069039;28;52244;-56
2022/05/09 15:38:39;;;;;;;;;18.00;17.33;;;;;-147.17;100.00;47463.09;5063247;27;51120;-56
2022/05/09 15:41:10;;;;;;;;;17.33;17.00;;;;;-147.17;100.00;47423.75;5088594;27;50956;-55
2022/05/09 15:43:40;;;;;;;;;18.33;18.33;;;;;-147.17;100.00;47329.34;5088834;27;51334;-56
2022/05/09 15:46:06;;;;;;;;;18.00;17.00;;;;;-147.17;100.00;47313.59;5087618;27;51295;-56
2022/05/09 15:48:32;;;;;;;;;16.00;15.33;;;;;-147.17;100.00;47238.84;5107778;27;51021;-55
2022/05/09 15:50:58;;;;;;;;;17.00;16.00;;;;;-147.17;100.00;47266.41;5108778;27;50884;-57
2022/05/09 15:53:29;;;;;;;;;16.00;15.00;;;;;-147.17;100.00;47286.06;5109220;27;51025;-56
2022/05/09 15:55:59;;;;;;;;;19.25;19.00;;;;;-147.17;100.00;47305.75;5108775;27;51230;-58
2022/05/09 15:58:32;;;;;;;;;19.00;18.00;;;;;-147.17;100.00;47238.84;5109426;27;50957;-57
2022/05/09 16:00:58;;;;;;;;;19.50;18.75;;;;;-147.17;100.00;47183.78;5069972;27;51010;-56
2022/05/09 16:03:26;;;;;;;;;16.33;16.33;;;;;-147.17;100.00;47160.19;5066604;28;50955;-56
2022/05/09 16:11:23;;;;;;;;;19.50;17.00;;;;;-147.17;100.00;47175.91;5108453;27;50988;-54
2022/05/09 16:13:49;;;;;;;;;16.33;16.33;;;;;-147.17;100.00;47124.78;5089681;27;51169;-57